Archival Weather

Chicago O'Hare International

Chicago, Illinois (KORD)

Report from: Friday, March 30, 2012 10:43 AM CDT
Current time: Wednesday, May 29, 2024 3:50 AM CDT

Current weather – Weather history – Daily summaries
Weather forecast

Present weatherHaze
Temperature11.0°C (51.8°F)
Dew point7.0°C (44.6°F)
Winds 7 kts (3.6 m/s, 8.1 mph) East-Northeast (60°)
Visibility6 mi. (9.7 km)
Clouds Ceiling: Broken clouds 1,300 ft. (396 m)
Broken clouds 1,800 ft. (549 m)
Overcast 2,500 ft. (762 m)
Altimeter29.73 in.Hg (1007 mB)
Relative humidity76 %
Density altitude-112 ft. (-34 m)
Remarks Special weather observation
Automated weather observing station with precipitation discriminator
Flight conditions Marginal Visual Meteorological Conditions
Raw data2012-03-30 15:43 KORD 301543Z 06007KT 6SM HZ BKN013 BKN018 OVC025 11/07 A2973 RMK AO2 SPECI
An error has occurred. This application may no longer respond until reloaded. Reload 🗙